This is the latest recevied weather packets stored in our database for station/object WA4IKQ. If no packets are shown the sender has not sent any weather packets the latest 10 day(s).
| Time | Temp. | Humidity | Pressure | Rain* | Wind** | Luminosity | Snow |
|---|---|---|---|---|---|---|---|
| 1777548896 | 22.78° C | 87% | 1011.8 hPa | 0 mm | 1.79 m/s, 218° | - | - |
| 1777548756 | 22.78° C | 87% | 1011.8 hPa | 0 mm | 1.79 m/s, 218° | - | - |
| 1777548154 | 22.78° C | 87% | 1011.5 hPa | 0 mm | 1.34 m/s, 201° | - | - |
| 1777547844 | 22.78° C | 87% | 1011.5 hPa | 0 mm | 1.34 m/s, 197° | - | - |
| 1777547557 | 22.78° C | 87% | 1011.5 hPa | 0 mm | 1.34 m/s, 197° | - | - |
| 1777547388 | 22.78° C | 87% | 1011.4 hPa | 0 mm | 0.45 m/s, 205° | - | - |
| 1777547255 | 22.78° C | 87% | 1011.4 hPa | 0 mm | 0.45 m/s, 205° | - | - |
| 1777546322 | 22.78° C | 87% | 1011.1 hPa | 0 mm | 0.89 m/s, 246° | - | - |
| 1777546053 | 22.78° C | 87% | 1011.1 hPa | 0 mm | 0.89 m/s, 246° | - | - |
| 1777544774 | 22.78° C | 87% | 1010.9 hPa | 0 mm | 1.34 m/s, 194° | - | - |
| 1777544555 | 22.78° C | 87% | 1010.9 hPa | 0 mm | 1.34 m/s, 194° | - | - |
| 1777544255 | 22.78° C | 87% | 1010.9 hPa | 0 mm | 0.89 m/s, 179° | - | - |
| 1777543776 | 22.78° C | 87% | 1010.9 hPa | 0 mm | 1.34 m/s, 150° | - | - |
| 1777543653 | 22.78° C | 87% | 1010.9 hPa | 0 mm | 1.34 m/s, 150° | - | - |
| 1777543533 | 22.78° C | 87% | 1011 hPa | 0 mm | 0 m/s | - | - |
| 1777543391 | 22.78° C | 87% | 1011.1 hPa | 0 mm | 0.89 m/s, 236° | - | - |
| 1777543356 | 22.78° C | 87% | 1011 hPa | 0 mm | 0 m/s | - | - |
| 1777543054 | 22.78° C | 87% | 1011.1 hPa | 0 mm | 0.89 m/s, 236° | - | - |
| 1777542953 | 22.78° C | 87% | 1011.2 hPa | 0 mm | 0.89 m/s, 218° | - | - |
| 1777542754 | 22.78° C | 87% | 1011.2 hPa | 0 mm | 0.89 m/s, 218° | - | - |
| 1777541415 | 22.78° C | 87% | 1010.7 hPa | 0 mm | 1.34 m/s, 184° | - | - |
| 1777540933 | 22.78° C | 87% | 1011.1 hPa | 0 mm | 0.45 m/s, 218° | - | - |
| 1777540653 | 22.78° C | 87% | 1011.1 hPa | 0 mm | 0.45 m/s, 218° | - | - |
| 1777540572 | 22.78° C | 87% | 1011.1 hPa | 0 mm | 0 m/s | - | - |
| 1777540364 | 22.78° C | 87% | 1011.1 hPa | 0 mm | 0 m/s | - | - |
* Rain latest hour (hover to see other rain measurements)
** Current wind speed in m/s (hover to see current wind gust speed)